Latest Weather Observations for Hopetoun Airport

IDV60801

Issued at 11:35 am EST Wednesday 17 September 2014 (issued every 30 minutes, with the page automatically refreshed every 10 minutes)

About weather observations | Map of weather stations | Latest weather observations for VIC | Other Formats
Station Details ID: 077010 Name: HOPETOUN AIRPORT Lat: -35.72 Lon: 142.36 Height: 77.3 m
Data from the previous 72 hours. | See also: Recent months at Hopetoun Airport
Date/Time
EST
Temp
°C
App
Temp
°C
Dew
Point
Rel
Hum
%
Delta-T
°C
Wind Press
QNH
hPa
Press
MSL
hPa
Rain
since 9 am
mm
Dir
 
Spd
km/h
Gust
km/h
Spd
kts
Gust
kts
17/11:30am 14.8 7.9 4.8 51 4.7 SW 30 39 16 21 1018.6 1018.6 0.0
17/11:00am 15.8 9.3 4.8 48 5.2 SW 28 41 15 22 1018.7 1018.7 0.0
17/10:30am 15.8 9.8 5.4 50 5.0 SW 26 37 14 20 1018.6 1018.6 0.0
17/10:00am 13.9 8.0 6.0 59 3.8 SW 26 37 14 20 1018.7 1018.7 0.0
17/09:30am 13.8 8.1 6.9 63 3.4 SW 26 35 14 19 1018.5 1018.5 0.0
17/09:00am 12.5 7.6 7.0 69 2.6 WSW 22 32 12 17 1018.4 1018.4 0.0
17/08:30am 10.8 6.6 7.3 79 1.7 WSW 19 24 10 13 1018.2 1018.2 0.0
17/08:00am 9.3 5.5 7.4 88 0.9 W 17 22 9 12 1018.0 1018.0 0.0
17/07:30am 7.8 4.7 7.4 97 0.2 W 13 19 7 10 1017.7 1017.7 0.0
17/07:00am 5.8 3.1 5.4 97 0.2 W 9 11 5 6 1017.4 1017.4 0.0
17/06:30am 5.8 2.7 5.4 97 0.2 W 11 15 6 8 1017.1 1017.1 0.0
17/06:00am 5.3 2.4 4.6 95 0.3 W 9 13 5 7 1017.0 1017.0 0.0
17/05:30am 6.3 3.2 5.7 96 0.3 W 11 13 6 7 1016.9 1016.9 0.0
17/05:00am 6.5 3.8 5.6 94 0.4 W 9 11 5 6 1016.6 1016.6 0.0
17/04:30am 7.5 5.0 6.4 93 0.5 W 9 11 5 6 1016.4 1016.4 0.0
17/04:00am 8.2 5.4 7.0 92 0.6 WSW 11 15 6 8 1016.1 1016.2 0.0
17/03:30am 8.5 5.4 7.4 93 0.5 W 13 17 7 9 1016.3 1016.3 0.0
17/03:00am 8.3 5.6 7.4 94 0.4 W 11 15 6 8 1016.4 1016.4 0.0
17/02:30am 8.4 5.7 7.2 92 0.6 W 11 15 6 8 1016.4 1016.4 0.0
17/02:00am 9.1 6.1 7.5 90 0.8 W 13 17 7 9 1016.4 1016.4 0.0
17/01:30am 10.1 6.0 7.7 85 1.2 W 19 26 10 14 1016.4 1016.4 0.0
17/01:00am 10.8 6.5 7.9 82 1.4 WSW 20 28 11 15 1016.4 1016.4 0.0
17/12:30am 10.8 6.0 7.5 80 1.6 WSW 22 28 12 15 1016.4 1016.4 0.0
17/12:00am 11.1 6.8 6.8 75 2.0 WSW 19 24 10 13 1016.1 1016.2 0.0
 
Date/Time
EST
Temp
°C
App
Temp
°C
Dew
Point
Rel
Hum
%
Delta-T
°C
Wind Press
QNH
hPa
Press
MSL
hPa
Rain
since 9 am
mm
Dir
 
Spd
km/h
Gust
km/h
Spd
kts
Gust
kts
16/11:30pm 11.2 6.8 6.5 73 2.2 WSW 19 24 10 13 1016.0 1016.1 0.0
16/11:00pm 11.2 7.4 5.9 70 2.5 WSW 15 20 8 11 1016.3 1016.3 0.0
16/10:30pm 12.4 7.6 5.8 64 3.1 WSW 20 28 11 15 1016.3 1016.3 0.0
16/10:00pm 12.6 9.1 5.3 61 3.4 WSW 13 20 7 11 1016.0 1016.1 0.0
16/09:30pm 11.9 8.6 4.4 60 3.4 WSW 11 15 6 8 1015.9 1016.0 0.0
16/09:00pm 12.0 8.2 4.0 58 3.6 SW 13 17 7 9 1015.8 1015.9 0.0
16/08:30pm 12.6 7.4 3.8 55 4.0 WSW 20 24 11 13 1015.6 1015.7 0.0
16/08:00pm 13.0 7.9 3.1 51 4.4 WSW 19 26 10 14 1015.2 1015.3 0.0
16/07:30pm 13.9 8.5 2.5 46 5.1 WSW 20 24 11 13 1014.8 1014.9 0.0
16/07:00pm 14.9 10.1 2.8 44 5.4 WSW 17 22 9 12 1014.3 1014.4 0.0
16/06:30pm 15.7 12.4 4.7 48 5.2 SW 11 17 6 9 1013.9 1013.9 0.0
16/06:00pm 16.8 12.1 5.1 46 5.6 SW 19 26 10 14 1013.7 1013.7 0.0
16/05:30pm 17.2 11.2 5.2 45 5.8 SW 26 35 14 19 1013.5 1013.5 0.0
16/05:00pm 17.7 11.5 4.3 41 6.4 SW 26 35 14 19 1013.2 1013.2 0.0
16/04:30pm 18.4 11.8 4.2 39 6.8 WSW 28 35 15 19 1013.1 1013.1 0.0
16/04:00pm 19.3 11.5 1.8 31 8.0 WSW 32 41 17 22 1012.9 1012.9 0.0
16/03:30pm 17.9 11.3 4.1 40 6.5 SW 28 44 15 24 1013.0 1013.0 0.0
16/03:00pm 18.6 11.6 4.0 38 6.9 WSW 30 41 16 22 1013.0 1013.0 0.0
16/02:30pm 18.9 11.4 4.7 39 6.9 SW 33 43 18 23 1013.3 1013.3 0.0
16/02:00pm 18.0 10.0 3.9 39 6.7 SW 35 46 19 25 1013.3 1013.3 0.0
16/01:30pm 18.1 10.2 4.3 40 6.6 SW 35 50 19 27 1013.3 1013.3 0.0
16/01:00pm 19.0 10.9 5.1 40 6.8 WSW 37 54 20 29 1013.4 1013.4 0.0
16/12:30pm 18.1 10.7 5.0 42 6.3 SW 33 44 18 24 1013.6 1013.6 0.0
16/12:00pm 17.9 9.9 3.8 39 6.6 SW 35 46 19 25 1013.9 1013.9 0.0
16/11:30am 16.9 8.7 2.9 39 6.4 SW 35 50 19 27 1014.1 1014.1 0.0
16/11:00am 16.9 9.7 4.9 45 5.7 SW 32 44 17 24 1014.2 1014.3 0.0
16/10:30am 16.4 9.6 5.1 47 5.4 SW 30 44 16 24 1014.2 1014.3 0.0
16/10:00am 15.2 7.8 4.9 50 4.9 SW 33 46 18 25 1014.1 1014.1 0.0
16/09:30am 14.4 6.8 5.7 56 4.1 SW 35 44 19 24 1014.2 1014.3 0.0
16/09:00am 13.4 6.3 6.5 63 3.3 SW 33 44 18 24 1014.3 1014.4 0.0
16/08:30am 12.4 6.4 7.1 70 2.6 SW 28 41 15 22 1014.0 1014.0 0.0
16/08:00am 11.0 4.2 6.9 76 2.0 SW 32 43 17 23 1013.9 1013.9 0.0
16/07:30am 10.9 3.9 7.0 77 1.9 SW 33 44 18 24 1013.5 1013.5 0.0
16/07:00am 11.2 3.9 7.3 77 1.9 SW 35 46 19 25 1013.1 1013.1 0.0
16/06:30am 11.7 5.5 7.8 77 1.9 WSW 30 37 16 20 1012.5 1012.5 0.0
16/06:00am 12.0 6.2 8.1 77 1.9 SW 28 37 15 20 1012.0 1012.0 0.0
16/05:30am 12.0 6.6 8.1 77 1.9 SW 26 39 14 21 1011.6 1011.6 0.0
16/05:00am 12.4 6.6 8.1 75 2.1 SW 28 39 15 21 1010.9 1010.9 0.0
16/04:30am 12.4 6.7 8.5 77 1.9 SW 28 41 15 22 1010.8 1010.8 0.0
16/04:00am 12.3 6.0 9.0 80 1.7 WSW 32 41 17 22 1010.4 1010.4 0.0
16/03:30am 12.1 7.1 9.5 84 1.3 SW 26 35 14 19 1010.1 1010.1 0.0
16/03:00am 11.8 6.5 9.7 87 1.1 SW 28 41 15 22 1010.0 1010.0 0.0
16/02:30am 12.5 6.3 9.5 82 1.5 SW 32 46 17 25 1010.0 1010.0 0.0
16/02:00am 13.0 6.6 9.3 78 1.9 SW 33 44 18 24 1010.0 1010.0 0.0
16/01:30am 13.2 6.8 9.3 77 2.0 SW 33 44 18 24 1009.9 1009.9 0.0
16/01:00am 13.5 7.4 9.6 77 2.0 SW 32 41 17 22 1009.8 1009.8 0.0
16/12:30am 13.8 8.6 10.2 79 1.9 WSW 28 35 15 19 1009.5 1009.5 0.0
16/12:00am 13.6 10.2 11.1 85 1.3 WSW 20 33 11 18 1009.2 1009.2 0.0
 
Date/Time
EST
Temp
°C
App
Temp
°C
Dew
Point
Rel
Hum
%
Delta-T
°C
Wind Press
QNH
hPa
Press
MSL
hPa
Rain
since 9 am
mm
Dir
 
Spd
km/h
Gust
km/h
Spd
kts
Gust
kts
15/11:30pm 12.3 10.0 10.5 89 0.9 WSW 13 19 7 10 1009.2 1009.2 0.0
15/11:00pm 12.5 9.4 10.4 87 1.1 W 17 22 9 12 1009.3 1009.3 0.0
15/10:30pm 11.4 8.7 9.1 86 1.2 W 13 17 7 9 1009.2 1009.2 0.0
15/10:00pm 12.4 8.7 9.6 83 1.4 W 19 24 10 13 1009.2 1009.2 0.0
15/09:30pm 10.8 8.4 8.7 87 1.0 WNW 11 13 6 7 1009.0 1009.0 0.0
15/09:00pm 13.0 10.9 9.6 80 1.7 WNW 11 13 6 7 1008.9 1008.9 0.0
15/08:30pm 14.0 10.1 9.4 74 2.4 W 20 30 11 16 1009.1 1009.1 0.0
15/08:00pm 15.0 11.4 8.5 65 3.3 W 17 22 9 12 1009.0 1009.0 0.0
15/07:30pm 14.6 12.2 7.2 61 3.6 W 9 11 5 6 1008.7 1008.7 0.0
15/07:00pm 16.2 14.3 7.4 56 4.4 WSW 7 9 4 5 1008.4 1008.4 0.0
15/06:30pm 16.9 14.6 7.3 53 4.8 W 9 11 5 6 1008.3 1008.3 0.0
15/06:00pm 17.9 15.3 7.6 51 5.2 W 11 13 6 7 1008.0 1008.0 0.0
15/05:30pm 18.5 15.1 7.6 49 5.6 W 15 19 8 10 1007.9 1007.9 0.0
15/05:00pm 18.9 15.4 7.0 46 6.0 W 15 19 8 10 1007.8 1007.8 0.0
15/04:30pm 19.3 15.0 6.8 44 6.3 WNW 19 26 10 14 1007.7 1007.7 0.0
15/04:00pm 20.0 15.6 6.4 41 6.9 W 19 24 10 13 1007.6 1007.6 0.0
15/03:30pm 20.2 15.9 5.4 38 7.3 NW 17 26 9 14 1007.6 1007.6 0.0
15/03:00pm 21.3 16.4 5.2 35 8.0 NNW 20 30 11 16 1007.5 1007.5 0.0
15/02:30pm 21.5 16.7 5.8 36 7.9 NW 20 32 11 17 1007.6 1007.6 0.0
15/02:00pm 21.6 16.4 5.5 35 8.1 NW 22 37 12 20 1007.9 1007.9 0.0
15/01:30pm 20.2 14.8 6.2 40 7.0 NW 24 33 13 18 1008.2 1008.2 0.0
15/01:00pm 19.6 13.9 6.7 43 6.5 NW 26 33 14 18 1008.2 1008.2 0.0
15/12:30pm 20.4 15.8 6.4 40 7.1 NNW 20 30 11 16 1008.4 1008.4 0.0
15/12:00pm 20.8 15.8 4.8 35 7.9 N 20 33 11 18 1008.6 1008.6 0.0
15/11:30am 20.4 14.8 3.2 32 8.2 N 22 33 12 18 1009.0 1009.0 0.0
15/11:00am 20.0 12.8 0.5 27 8.7 N 28 33 15 18 1009.3 1009.3 0.0
15/10:30am 20.0 13.1 -0.1 26 8.9 N 26 37 14 20 1009.5 1009.5 0.0
15/10:00am 19.3 12.9 0.8 29 8.3 N 24 35 13 19 1010.0 1010.0 0.0
15/09:30am 16.5 11.7 2.5 39 6.3 NE 17 20 9 11 1010.4 1010.4 0.0
15/09:00am 14.6 9.4 2.5 44 5.4 NE 19 26 10 14 1010.6 1010.6 0.0
15/08:30am 13.6 8.9 3.1 49 4.7 ENE 17 22 9 12 1010.7 1010.7 0.0
15/08:00am 12.5 7.8 2.9 52 4.2 E 17 20 9 11 1011.2 1011.2 0.0
15/07:30am 11.7 6.9 2.7 54 3.9 E 17 20 9 11 1011.2 1011.2 0.0
15/07:00am 11.4 7.0 2.7 55 3.8 E 15 19 8 10 1011.2 1011.2 0.0
15/06:30am 11.2 7.2 2.8 56 3.7 E 13 17 7 9 1011.3 1011.3 0.0
15/06:00am 11.4 6.7 2.9 56 3.7 E 17 20 9 11 1011.3 1011.3 0.0
15/05:30am 11.1 7.2 3.2 58 3.5 E 13 17 7 9 1011.6 1011.6 0.0
15/05:00am 10.9 7.7 3.2 59 3.4 E 9 13 5 7 1011.9 1011.9 0.0
15/04:30am 11.2 7.7 3.3 58 3.5 E 11 17 6 9 1011.7 1011.7 0.0
15/04:00am 11.2 7.3 3.3 58 3.5 E 13 17 7 9 1011.9 1011.9 0.0
15/03:30am 11.6 8.0 3.1 56 3.7 E 11 15 6 8 1012.2 1012.2 0.0
15/03:00am 12.0 8.3 2.2 51 4.2 ESE 11 13 6 7 1012.9 1012.9 0.0
15/02:30am 11.4 7.6 1.9 52 4.1 E 11 15 6 8 1013.1 1013.1 0.0
15/02:00am 11.5 7.4 2.0 52 4.1 ENE 13 15 7 8 1013.5 1013.5 0.0
15/01:30am 11.4 7.3 2.4 54 3.9 E 13 17 7 9 1014.0 1014.0 0.0
15/01:00am 12.3 8.2 2.5 51 4.3 E 13 17 7 9 1014.4 1014.5 0.0
15/12:30am 13.2 8.9 3.0 50 4.5 E 15 17 8 9 1014.6 1014.7 0.0
15/12:00am 13.1 9.2 3.2 51 4.4 ESE 13 17 7 9 1015.2 1015.3 0.0
 
Date/Time
EST
Temp
°C
App
Temp
°C
Dew
Point
Rel
Hum
%
Delta-T
°C
Wind Press
QNH
hPa
Press
MSL
hPa
Rain
since 9 am
mm
Dir
 
Spd
km/h
Gust
km/h
Spd
kts
Gust
kts
14/11:30pm 14.5 10.6 3.6 48 5.0 ESE 13 17 7 9 1015.6 1015.7 0.0
14/11:00pm 15.4 10.8 3.9 46 5.3 ESE 17 22 9 12 1015.8 1015.9 0.0
14/10:30pm 15.4 12.2 5.3 51 4.8 SE 11 17 6 9 1016.5 1016.5 0.0
14/10:00pm 15.3 12.6 5.5 52 4.7 ESE 9 13 5 7 1016.8 1016.8 0.0
14/09:30pm 16.6 13.1 5.6 48 5.3 SSE 13 19 7 10 1016.7 1016.7 0.0
14/09:00pm 17.1 13.7 5.7 47 5.5 S 13 19 7 10 1016.9 1016.9 0.0
14/08:30pm 17.0 14.0 5.9 48 5.4 SSE 11 13 6 7 1016.8 1016.8 0.0
14/08:00pm 18.2 15.6 6.1 45 6.0 S 9 11 5 6 1016.5 1016.5 0.0
14/07:30pm 18.9 16.7 6.1 43 6.4 S 7 11 4 6 1016.6 1016.6 0.0
14/07:00pm 19.3 17.1 6.1 42 6.6 S 7 9 4 5 1016.3 1016.3 0.0
14/06:30pm 19.4 17.1 5.8 41 6.7 S 7 9 4 5 1016.1 1016.2 0.0
14/06:00pm 21.1 18.4 5.5 36 7.8 S 9 15 5 8 1016.1 1016.2 0.0
14/05:30pm 21.8 18.7 5.7 35 8.1 S 11 15 6 8 1015.9 1016.0 0.0
14/05:00pm 22.4 19.3 5.4 33 8.5 S 11 19 6 10 1015.9 1016.0 0.0
14/04:30pm 22.7 19.5 5.2 32 8.8 SW 11 19 6 10 1015.9 1016.0 0.0
14/04:00pm 23.0 19.0 5.0 31 9.0 W 15 22 8 12 1015.8 1015.9 0.0
14/03:30pm 24.1 20.1 5.0 29 9.6 W 15 22 8 12 1016.1 1016.2 0.0
14/03:00pm 23.9 19.9 4.8 29 9.6 W 15 22 8 12 1016.3 1016.3 0.0
14/02:30pm 23.7 21.5 5.1 30 9.4 W 6 11 3 6 1016.6 1016.6 0.0
14/02:00pm 23.6 20.8 5.0 30 9.3 WNW 9 28 5 15 1017.0 1017.0 0.0
14/01:30pm 23.4 19.4 4.9 30 9.2 W 15 24 8 13 1017.4 1017.4 0.0
14/01:00pm 22.5 18.7 4.1 30 9.0 W 13 26 7 14 1017.8 1017.8 0.0
14/12:30pm 21.7 18.4 4.3 32 8.5 W 11 20 6 11 1018.5 1018.5 0.0
14/12:00pm 21.3 18.9 4.4 33 8.2 SW 6 13 3 7 1018.9 1018.9 0.0

Other Formats:

Comma delimited format used in spreadsheet applications
http://www.bom.gov.au/fwo/IDV60801/IDV60801.94838.axf

JavaScript Object Notation format (JSON) in row-major order
http://www.bom.gov.au/fwo/IDV60801/IDV60801.94838.json